sensor_id;sensor_type;location;lat;lon;timestamp;P1;durP1;ratioP1;P2;durP2;ratioP2
5077;SDS011;2557;51.390;7.494;2023-08-06T00:01:57;6.30;;;5.70;;
5077;SDS011;2557;51.390;7.494;2023-08-06T00:04:23;6.63;;;5.87;;
5077;SDS011;2557;51.390;7.494;2023-08-06T00:06:49;5.67;;;5.17;;
5077;SDS011;2557;51.390;7.494;2023-08-06T00:09:15;7.90;;;5.87;;
5077;SDS011;2557;51.390;7.494;2023-08-06T00:11:41;9.37;;;6.00;;
5077;SDS011;2557;51.390;7.494;2023-08-06T00:14:08;10.20;;;6.23;;
5077;SDS011;2557;51.390;7.494;2023-08-06T00:16:35;8.73;;;5.57;;
5077;SDS011;2557;51.390;7.494;2023-08-06T00:19:00;6.10;;;5.60;;
5077;SDS011;2557;51.390;7.494;2023-08-06T00:21:27;6.30;;;5.73;;
5077;SDS011;2557;51.390;7.494;2023-08-06T00:23:53;7.03;;;6.37;;
5077;SDS011;2557;51.390;7.494;2023-08-06T00:26:19;8.87;;;5.70;;
5077;SDS011;2557;51.390;7.494;2023-08-06T00:28:45;5.53;;;5.10;;
5077;SDS011;2557;51.390;7.494;2023-08-06T00:31:11;16.90;;;6.20;;
5077;SDS011;2557;51.390;7.494;2023-08-06T00:33:37;6.70;;;6.10;;
5077;SDS011;2557;51.390;7.494;2023-08-06T00:36:03;5.90;;;5.47;;
5077;SDS011;2557;51.390;7.494;2023-08-06T00:38:29;6.50;;;5.27;;
5077;SDS011;2557;51.390;7.494;2023-08-06T00:40:55;11.87;;;6.80;;
5077;SDS011;2557;51.390;7.494;2023-08-06T00:43:21;8.77;;;5.20;;
5077;SDS011;2557;51.390;7.494;2023-08-06T00:45:47;11.30;;;6.83;;
5077;SDS011;2557;51.390;7.494;2023-08-06T00:48:13;7.53;;;5.33;;
5077;SDS011;2557;51.390;7.494;2023-08-06T00:50:39;7.93;;;6.13;;
5077;SDS011;2557;51.390;7.494;2023-08-06T00:53:05;8.60;;;5.70;;
5077;SDS011;2557;51.390;7.494;2023-08-06T00:55:32;5.70;;;5.17;;
5077;SDS011;2557;51.390;7.494;2023-08-06T00:57:59;6.63;;;6.03;;
5077;SDS011;2557;51.390;7.494;2023-08-06T01:00:25;5.80;;;5.30;;
5077;SDS011;2557;51.390;7.494;2023-08-06T01:02:51;6.90;;;6.30;;
5077;SDS011;2557;51.390;7.494;2023-08-06T01:05:18;6.47;;;5.87;;
5077;SDS011;2557;51.390;7.494;2023-08-06T01:08:04;9.87;;;6.00;;
5077;SDS011;2557;51.390;7.494;2023-08-06T01:15:54;6.60;;;6.10;;
5077;SDS011;2557;51.390;7.494;2023-08-06T01:18:22;10.40;;;5.93;;
5077;SDS011;2557;51.390;7.494;2023-08-06T01:20:48;10.07;;;5.90;;
5077;SDS011;2557;51.390;7.494;2023-08-06T01:23:18;7.63;;;6.77;;
5077;SDS011;2557;51.390;7.494;2023-08-06T01:28:41;7.23;;;5.93;;
5077;SDS011;2557;51.390;7.494;2023-08-06T01:31:15;9.73;;;6.43;;
5077;SDS011;2557;51.390;7.494;2023-08-06T01:33:42;7.03;;;6.20;;
5077;SDS011;2557;51.390;7.494;2023-08-06T01:36:09;11.97;;;6.30;;
5077;SDS011;2557;51.390;7.494;2023-08-06T01:38:35;8.40;;;5.83;;
5077;SDS011;2557;51.390;7.494;2023-08-06T01:41:01;12.73;;;6.53;;
5077;SDS011;2557;51.390;7.494;2023-08-06T01:43:27;6.50;;;5.60;;
5077;SDS011;2557;51.390;7.494;2023-08-06T01:45:53;7.80;;;6.30;;
5077;SDS011;2557;51.390;7.494;2023-08-06T01:48:19;6.50;;;5.80;;
5077;SDS011;2557;51.390;7.494;2023-08-06T01:50:45;9.20;;;5.50;;
5077;SDS011;2557;51.390;7.494;2023-08-06T01:53:11;8.20;;;5.57;;
5077;SDS011;2557;51.390;7.494;2023-08-06T01:55:37;5.83;;;5.23;;
5077;SDS011;2557;51.390;7.494;2023-08-06T01:58:03;5.70;;;5.13;;
5077;SDS011;2557;51.390;7.494;2023-08-06T02:00:29;5.27;;;4.80;;
5077;SDS011;2557;51.390;7.494;2023-08-06T02:02:55;6.73;;;5.17;;
5077;SDS011;2557;51.390;7.494;2023-08-06T02:05:21;6.27;;;5.20;;
5077;SDS011;2557;51.390;7.494;2023-08-06T02:07:47;5.43;;;5.03;;
5077;SDS011;2557;51.390;7.494;2023-08-06T02:10:13;6.73;;;6.13;;
5077;SDS011;2557;51.390;7.494;2023-08-06T02:12:39;11.87;;;5.50;;
5077;SDS011;2557;51.390;7.494;2023-08-06T02:15:05;7.77;;;5.50;;
5077;SDS011;2557;51.390;7.494;2023-08-06T02:17:31;17.27;;;6.10;;
5077;SDS011;2557;51.390;7.494;2023-08-06T02:19:57;7.30;;;5.80;;
5077;SDS011;2557;51.390;7.494;2023-08-06T02:22:23;6.60;;;5.90;;
5077;SDS011;2557;51.390;7.494;2023-08-06T02:24:49;8.20;;;6.10;;
5077;SDS011;2557;51.390;7.494;2023-08-06T02:27:15;9.47;;;6.40;;
5077;SDS011;2557;51.390;7.494;2023-08-06T02:29:41;7.00;;;6.30;;
5077;SDS011;2557;51.390;7.494;2023-08-06T02:32:07;7.50;;;6.70;;
5077;SDS011;2557;51.390;7.494;2023-08-06T02:34:33;9.83;;;6.60;;
5077;SDS011;2557;51.390;7.494;2023-08-06T02:36:59;16.83;;;6.40;;
5077;SDS011;2557;51.390;7.494;2023-08-06T02:39:25;6.50;;;5.23;;
5077;SDS011;2557;51.390;7.494;2023-08-06T02:41:51;7.57;;;5.63;;
5077;SDS011;2557;51.390;7.494;2023-08-06T02:44:17;9.90;;;6.17;;
5077;SDS011;2557;51.390;7.494;2023-08-06T02:46:44;6.07;;;5.47;;
5077;SDS011;2557;51.390;7.494;2023-08-06T02:49:10;6.57;;;6.00;;
5077;SDS011;2557;51.390;7.494;2023-08-06T02:51:36;10.40;;;6.60;;
5077;SDS011;2557;51.390;7.494;2023-08-06T02:54:02;10.20;;;6.10;;
5077;SDS011;2557;51.390;7.494;2023-08-06T02:56:28;9.07;;;5.93;;
5077;SDS011;2557;51.390;7.494;2023-08-06T02:58:55;6.50;;;5.50;;
5077;SDS011;2557;51.390;7.494;2023-08-06T03:01:21;5.80;;;5.20;;
5077;SDS011;2557;51.390;7.494;2023-08-06T03:03:48;6.40;;;5.90;;
5077;SDS011;2557;51.390;7.494;2023-08-06T03:06:14;5.60;;;5.10;;
5077;SDS011;2557;51.390;7.494;2023-08-06T03:08:40;6.53;;;5.63;;
5077;SDS011;2557;51.390;7.494;2023-08-06T03:11:06;8.20;;;5.60;;
5077;SDS011;2557;51.390;7.494;2023-08-06T03:13:32;8.53;;;6.00;;
5077;SDS011;2557;51.390;7.494;2023-08-06T03:15:58;6.60;;;5.90;;
5077;SDS011;2557;51.390;7.494;2023-08-06T03:18:25;8.63;;;5.90;;
5077;SDS011;2557;51.390;7.494;2023-08-06T03:20:51;7.60;;;5.53;;
5077;SDS011;2557;51.390;7.494;2023-08-06T03:23:18;13.83;;;6.10;;
5077;SDS011;2557;51.390;7.494;2023-08-06T03:25:44;6.13;;;5.57;;
5077;SDS011;2557;51.390;7.494;2023-08-06T03:28:10;9.10;;;5.87;;
5077;SDS011;2557;51.390;7.494;2023-08-06T03:30:36;6.77;;;5.60;;
5077;SDS011;2557;51.390;7.494;2023-08-06T03:33:02;6.70;;;6.10;;
5077;SDS011;2557;51.390;7.494;2023-08-06T03:35:28;6.93;;;5.23;;
5077;SDS011;2557;51.390;7.494;2023-08-06T03:37:54;7.87;;;5.27;;
5077;SDS011;2557;51.390;7.494;2023-08-06T03:40:20;6.03;;;5.50;;
5077;SDS011;2557;51.390;7.494;2023-08-06T03:42:46;6.70;;;6.00;;
5077;SDS011;2557;51.390;7.494;2023-08-06T03:45:12;5.87;;;5.47;;
5077;SDS011;2557;51.390;7.494;2023-08-06T03:47:38;6.63;;;6.00;;
5077;SDS011;2557;51.390;7.494;2023-08-06T03:50:04;6.17;;;5.60;;
5077;SDS011;2557;51.390;7.494;2023-08-06T03:52:30;5.37;;;4.97;;
5077;SDS011;2557;51.390;7.494;2023-08-06T03:54:56;6.63;;;5.20;;
5077;SDS011;2557;51.390;7.494;2023-08-06T03:57:22;6.63;;;5.70;;
5077;SDS011;2557;51.390;7.494;2023-08-06T03:59:48;8.97;;;5.63;;
5077;SDS011;2557;51.390;7.494;2023-08-06T04:02:14;6.60;;;5.70;;
5077;SDS011;2557;51.390;7.494;2023-08-06T04:04:40;8.87;;;6.43;;
5077;SDS011;2557;51.390;7.494;2023-08-06T04:07:06;6.33;;;5.30;;
5077;SDS011;2557;51.390;7.494;2023-08-06T04:09:32;6.70;;;6.10;;
5077;SDS011;2557;51.390;7.494;2023-08-06T04:11:58;6.63;;;5.93;;
5077;SDS011;2557;51.390;7.494;2023-08-06T04:14:26;6.30;;;4.40;;
5077;SDS011;2557;51.390;7.494;2023-08-06T04:16:52;6.17;;;4.87;;
5077;SDS011;2557;51.390;7.494;2023-08-06T04:19:18;5.47;;;5.03;;
5077;SDS011;2557;51.390;7.494;2023-08-06T04:21:44;5.00;;;4.60;;
5077;SDS011;2557;51.390;7.494;2023-08-06T04:24:10;6.03;;;5.43;;
5077;SDS011;2557;51.390;7.494;2023-08-06T04:26:36;6.47;;;5.07;;
5077;SDS011;2557;51.390;7.494;2023-08-06T04:29:02;6.53;;;4.87;;
5077;SDS011;2557;51.390;7.494;2023-08-06T04:31:28;6.53;;;5.93;;
5077;SDS011;2557;51.390;7.494;2023-08-06T04:33:54;8.00;;;5.60;;
5077;SDS011;2557;51.390;7.494;2023-08-06T04:36:20;5.87;;;5.30;;
5077;SDS011;2557;51.390;7.494;2023-08-06T04:38:46;6.87;;;6.17;;
5077;SDS011;2557;51.390;7.494;2023-08-06T04:41:12;8.60;;;6.10;;
5077;SDS011;2557;51.390;7.494;2023-08-06T04:43:39;7.80;;;6.20;;
5077;SDS011;2557;51.390;7.494;2023-08-06T04:46:05;10.10;;;5.63;;
5077;SDS011;2557;51.390;7.494;2023-08-06T04:48:31;6.47;;;5.90;;
5077;SDS011;2557;51.390;7.494;2023-08-06T04:50:57;8.27;;;5.83;;
5077;SDS011;2557;51.390;7.494;2023-08-06T04:53:23;10.43;;;6.23;;
5077;SDS011;2557;51.390;7.494;2023-08-06T04:55:49;6.17;;;5.67;;
5077;SDS011;2557;51.390;7.494;2023-08-06T04:58:15;6.23;;;5.63;;
5077;SDS011;2557;51.390;7.494;2023-08-06T05:00:41;6.00;;;5.40;;
5077;SDS011;2557;51.390;7.494;2023-08-06T05:03:08;6.37;;;5.20;;
5077;SDS011;2557;51.390;7.494;2023-08-06T05:05:34;5.90;;;5.13;;
5077;SDS011;2557;51.390;7.494;2023-08-06T05:08:00;5.73;;;5.13;;
5077;SDS011;2557;51.390;7.494;2023-08-06T05:10:26;5.70;;;5.20;;
5077;SDS011;2557;51.390;7.494;2023-08-06T05:12:52;8.60;;;5.60;;
5077;SDS011;2557;51.390;7.494;2023-08-06T05:15:18;6.57;;;5.80;;
5077;SDS011;2557;51.390;7.494;2023-08-06T05:17:44;12.93;;;5.30;;
5077;SDS011;2557;51.390;7.494;2023-08-06T05:20:11;7.17;;;6.57;;
5077;SDS011;2557;51.390;7.494;2023-08-06T05:22:37;7.47;;;6.00;;
5077;SDS011;2557;51.390;7.494;2023-08-06T05:25:03;12.07;;;5.63;;
5077;SDS011;2557;51.390;7.494;2023-08-06T05:27:29;8.97;;;5.70;;
5077;SDS011;2557;51.390;7.494;2023-08-06T05:29:55;6.63;;;6.00;;
5077;SDS011;2557;51.390;7.494;2023-08-06T05:32:21;5.00;;;4.60;;
5077;SDS011;2557;51.390;7.494;2023-08-06T05:34:47;6.57;;;5.50;;
5077;SDS011;2557;51.390;7.494;2023-08-06T05:37:13;8.80;;;5.67;;
5077;SDS011;2557;51.390;7.494;2023-08-06T05:39:39;5.63;;;4.90;;
5077;SDS011;2557;51.390;7.494;2023-08-06T05:42:05;5.80;;;5.20;;
5077;SDS011;2557;51.390;7.494;2023-08-06T05:44:32;5.47;;;4.83;;
5077;SDS011;2557;51.390;7.494;2023-08-06T05:46:58;6.67;;;5.50;;
5077;SDS011;2557;51.390;7.494;2023-08-06T05:49:24;6.43;;;5.23;;
5077;SDS011;2557;51.390;7.494;2023-08-06T05:51:50;6.07;;;5.47;;
5077;SDS011;2557;51.390;7.494;2023-08-06T05:54:18;5.17;;;4.47;;
5077;SDS011;2557;51.390;7.494;2023-08-06T05:56:44;6.03;;;3.80;;
5077;SDS011;2557;51.390;7.494;2023-08-06T05:59:10;5.83;;;3.43;;
5077;SDS011;2557;51.390;7.494;2023-08-06T06:01:36;5.40;;;4.10;;
5077;SDS011;2557;51.390;7.494;2023-08-06T06:04:02;4.13;;;3.50;;
5077;SDS011;2557;51.390;7.494;2023-08-06T06:06:28;4.00;;;3.70;;
5077;SDS011;2557;51.390;7.494;2023-08-06T06:08:54;7.20;;;3.63;;
5077;SDS011;2557;51.390;7.494;2023-08-06T06:11:20;5.47;;;3.40;;
5077;SDS011;2557;51.390;7.494;2023-08-06T06:13:47;3.80;;;2.80;;
5077;SDS011;2557;51.390;7.494;2023-08-06T06:16:13;4.40;;;3.17;;
5077;SDS011;2557;51.390;7.494;2023-08-06T06:18:39;3.67;;;3.37;;
5077;SDS011;2557;51.390;7.494;2023-08-06T06:21:05;3.90;;;3.53;;
5077;SDS011;2557;51.390;7.494;2023-08-06T06:23:31;6.43;;;3.87;;
5077;SDS011;2557;51.390;7.494;2023-08-06T06:25:57;3.33;;;3.03;;
5077;SDS011;2557;51.390;7.494;2023-08-06T06:28:23;4.77;;;2.80;;
5077;SDS011;2557;51.390;7.494;2023-08-06T06:30:51;3.23;;;2.93;;
5077;SDS011;2557;51.390;7.494;2023-08-06T06:33:17;3.73;;;3.40;;
5077;SDS011;2557;51.390;7.494;2023-08-06T06:35:43;4.00;;;3.73;;
5077;SDS011;2557;51.390;7.494;2023-08-06T06:38:09;4.20;;;3.77;;
5077;SDS011;2557;51.390;7.494;2023-08-06T06:40:35;5.83;;;3.07;;
5077;SDS011;2557;51.390;7.494;2023-08-06T06:43:01;5.07;;;3.40;;
5077;SDS011;2557;51.390;7.494;2023-08-06T06:45:27;3.17;;;2.97;;
5077;SDS011;2557;51.390;7.494;2023-08-06T06:47:53;5.73;;;3.93;;
5077;SDS011;2557;51.390;7.494;2023-08-06T06:50:19;5.80;;;2.30;;
5077;SDS011;2557;51.390;7.494;2023-08-06T06:52:45;8.87;;;2.90;;
5077;SDS011;2557;51.390;7.494;2023-08-06T06:55:11;4.77;;;3.07;;
5077;SDS011;2557;51.390;7.494;2023-08-06T06:57:37;5.00;;;3.93;;
5077;SDS011;2557;51.390;7.494;2023-08-06T07:00:03;2.70;;;2.50;;
5077;SDS011;2557;51.390;7.494;2023-08-06T07:02:29;3.33;;;2.87;;
5077;SDS011;2557;51.390;7.494;2023-08-06T07:04:55;4.10;;;3.00;;
5077;SDS011;2557;51.390;7.494;2023-08-06T07:07:21;4.63;;;2.70;;
5077;SDS011;2557;51.390;7.494;2023-08-06T07:09:47;3.37;;;2.97;;
5077;SDS011;2557;51.390;7.494;2023-08-06T07:12:13;5.23;;;2.73;;
5077;SDS011;2557;51.390;7.494;2023-08-06T07:14:39;4.50;;;2.30;;
5077;SDS011;2557;51.390;7.494;2023-08-06T07:17:05;3.00;;;2.40;;
5077;SDS011;2557;51.390;7.494;2023-08-06T07:19:31;2.10;;;1.90;;
5077;SDS011;2557;51.390;7.494;2023-08-06T07:21:57;3.10;;;2.23;;
5077;SDS011;2557;51.390;7.494;2023-08-06T07:24:23;4.63;;;2.50;;
5077;SDS011;2557;51.390;7.494;2023-08-06T07:26:49;4.50;;;2.70;;
5077;SDS011;2557;51.390;7.494;2023-08-06T07:29:15;3.50;;;3.20;;
5077;SDS011;2557;51.390;7.494;2023-08-06T07:31:46;3.17;;;2.87;;
5077;SDS011;2557;51.390;7.494;2023-08-06T07:34:12;5.63;;;2.37;;
5077;SDS011;2557;51.390;7.494;2023-08-06T07:36:37;3.10;;;2.80;;
5077;SDS011;2557;51.390;7.494;2023-08-06T07:39:03;4.10;;;2.53;;
5077;SDS011;2557;51.390;7.494;2023-08-06T07:41:31;2.93;;;2.17;;
5077;SDS011;2557;51.390;7.494;2023-08-06T07:43:57;4.93;;;2.87;;
5077;SDS011;2557;51.390;7.494;2023-08-06T07:46:23;5.03;;;3.43;;
5077;SDS011;2557;51.390;7.494;2023-08-06T07:48:49;2.20;;;2.00;;
5077;SDS011;2557;51.390;7.494;2023-08-06T07:51:15;2.33;;;2.23;;
5077;SDS011;2557;51.390;7.494;2023-08-06T07:53:41;2.43;;;2.23;;
5077;SDS011;2557;51.390;7.494;2023-08-06T07:56:07;3.50;;;2.20;;
5077;SDS011;2557;51.390;7.494;2023-08-06T07:58:33;2.43;;;2.33;;
5077;SDS011;2557;51.390;7.494;2023-08-06T08:00:59;2.93;;;2.57;;
5077;SDS011;2557;51.390;7.494;2023-08-06T08:03:25;2.37;;;2.17;;
5077;SDS011;2557;51.390;7.494;2023-08-06T08:05:53;4.30;;;2.13;;
5077;SDS011;2557;51.390;7.494;2023-08-06T08:08:22;2.70;;;2.50;;
5077;SDS011;2557;51.390;7.494;2023-08-06T08:10:48;7.83;;;2.43;;
5077;SDS011;2557;51.390;7.494;2023-08-06T08:13:14;2.70;;;2.27;;
5077;SDS011;2557;51.390;7.494;2023-08-06T08:15:40;3.20;;;2.33;;
5077;SDS011;2557;51.390;7.494;2023-08-06T08:18:06;3.00;;;2.80;;
5077;SDS011;2557;51.390;7.494;2023-08-06T08:20:33;5.30;;;2.57;;
5077;SDS011;2557;51.390;7.494;2023-08-06T08:23:00;3.20;;;3.00;;
5077;SDS011;2557;51.390;7.494;2023-08-06T08:25:26;4.23;;;3.13;;
5077;SDS011;2557;51.390;7.494;2023-08-06T08:27:53;3.87;;;3.57;;
5077;SDS011;2557;51.390;7.494;2023-08-06T08:30:19;3.47;;;3.20;;
5077;SDS011;2557;51.390;7.494;2023-08-06T08:32:44;3.77;;;3.03;;
5077;SDS011;2557;51.390;7.494;2023-08-06T08:35:10;4.50;;;3.27;;
5077;SDS011;2557;51.390;7.494;2023-08-06T08:37:38;3.60;;;3.40;;
5077;SDS011;2557;51.390;7.494;2023-08-06T08:40:05;4.13;;;3.13;;
5077;SDS011;2557;51.390;7.494;2023-08-06T08:42:31;9.10;;;3.73;;
5077;SDS011;2557;51.390;7.494;2023-08-06T08:44:57;4.80;;;3.57;;
5077;SDS011;2557;51.390;7.494;2023-08-06T08:47:24;22.13;;;6.50;;
5077;SDS011;2557;51.390;7.494;2023-08-06T08:49:52;11.13;;;5.10;;
5077;SDS011;2557;51.390;7.494;2023-08-06T08:52:23;7.83;;;4.93;;
5077;SDS011;2557;51.390;7.494;2023-08-06T08:54:49;5.40;;;4.83;;
5077;SDS011;2557;51.390;7.494;2023-08-06T08:57:17;4.80;;;4.43;;
5077;SDS011;2557;51.390;7.494;2023-08-06T08:59:43;8.40;;;4.93;;
5077;SDS011;2557;51.390;7.494;2023-08-06T09:02:09;6.40;;;4.80;;
5077;SDS011;2557;51.390;7.494;2023-08-06T09:04:37;12.60;;;5.27;;
5077;SDS011;2557;51.390;7.494;2023-08-06T09:07:03;9.87;;;5.13;;
5077;SDS011;2557;51.390;7.494;2023-08-06T09:09:31;10.57;;;5.20;;
5077;SDS011;2557;51.390;7.494;2023-08-06T09:12:01;11.53;;;4.77;;
5077;SDS011;2557;51.390;7.494;2023-08-06T09:14:27;5.33;;;4.93;;
5077;SDS011;2557;51.390;7.494;2023-08-06T09:16:54;5.73;;;4.27;;
5077;SDS011;2557;51.390;7.494;2023-08-06T09:19:20;9.00;;;5.27;;
5077;SDS011;2557;51.390;7.494;2023-08-06T09:21:46;8.60;;;5.50;;
5077;SDS011;2557;51.390;7.494;2023-08-06T09:24:15;9.50;;;4.30;;
5077;SDS011;2557;51.390;7.494;2023-08-06T09:26:44;6.03;;;5.40;;
5077;SDS011;2557;51.390;7.494;2023-08-06T09:29:10;6.70;;;4.73;;
5077;SDS011;2557;51.390;7.494;2023-08-06T09:31:46;6.13;;;4.90;;
5077;SDS011;2557;51.390;7.494;2023-08-06T09:36:42;5.50;;;5.10;;
5077;SDS011;2557;51.390;7.494;2023-08-06T09:39:18;5.50;;;5.00;;
5077;SDS011;2557;51.390;7.494;2023-08-06T09:41:45;7.50;;;4.43;;
5077;SDS011;2557;51.390;7.494;2023-08-06T09:44:17;5.50;;;5.00;;
5077;SDS011;2557;51.390;7.494;2023-08-06T09:46:47;11.07;;;5.90;;
5077;SDS011;2557;51.390;7.494;2023-08-06T09:49:14;6.10;;;4.83;;
5077;SDS011;2557;51.390;7.494;2023-08-06T09:51:40;5.80;;;4.07;;
5077;SDS011;2557;51.390;7.494;2023-08-06T09:54:06;8.63;;;4.67;;
5077;SDS011;2557;51.390;7.494;2023-08-06T09:56:35;6.13;;;4.13;;
5077;SDS011;2557;51.390;7.494;2023-08-06T09:59:04;4.90;;;3.53;;
5077;SDS011;2557;51.390;7.494;2023-08-06T10:01:33;7.00;;;3.83;;
5077;SDS011;2557;51.390;7.494;2023-08-06T10:04:03;4.37;;;3.03;;
5077;SDS011;2557;51.390;7.494;2023-08-06T10:06:31;6.07;;;4.17;;
5077;SDS011;2557;51.390;7.494;2023-08-06T10:08:59;6.13;;;3.73;;
5077;SDS011;2557;51.390;7.494;2023-08-06T10:11:25;10.57;;;4.50;;
5077;SDS011;2557;51.390;7.494;2023-08-06T10:13:53;4.50;;;4.10;;
5077;SDS011;2557;51.390;7.494;2023-08-06T10:16:20;4.20;;;3.80;;
5077;SDS011;2557;51.390;7.494;2023-08-06T10:18:47;8.23;;;4.13;;
5077;SDS011;2557;51.390;7.494;2023-08-06T10:21:14;4.50;;;3.40;;
5077;SDS011;2557;51.390;7.494;2023-08-06T10:23:41;3.23;;;2.90;;
5077;SDS011;2557;51.390;7.494;2023-08-06T10:26:07;5.23;;;3.87;;
5077;SDS011;2557;51.390;7.494;2023-08-06T10:28:36;6.97;;;3.40;;
5077;SDS011;2557;51.390;7.494;2023-08-06T10:31:03;3.30;;;3.00;;
5077;SDS011;2557;51.390;7.494;2023-08-06T10:33:44;5.60;;;3.30;;
5077;SDS011;2557;51.390;7.494;2023-08-06T10:36:11;4.00;;;2.93;;
5077;SDS011;2557;51.390;7.494;2023-08-06T10:38:43;2.67;;;2.47;;
5077;SDS011;2557;51.390;7.494;2023-08-06T10:41:14;4.13;;;2.97;;
5077;SDS011;2557;51.390;7.494;2023-08-06T10:43:41;4.33;;;2.70;;
5077;SDS011;2557;51.390;7.494;2023-08-06T10:46:22;6.37;;;2.70;;
5077;SDS011;2557;51.390;7.494;2023-08-06T10:48:48;3.03;;;2.40;;
5077;SDS011;2557;51.390;7.494;2023-08-06T10:51:14;5.30;;;3.00;;
5077;SDS011;2557;51.390;7.494;2023-08-06T10:53:50;5.17;;;2.90;;
5077;SDS011;2557;51.390;7.494;2023-08-06T10:56:16;4.97;;;3.07;;
5077;SDS011;2557;51.390;7.494;2023-08-06T10:58:43;4.97;;;3.10;;
5077;SDS011;2557;51.390;7.494;2023-08-06T11:01:10;6.23;;;3.53;;
5077;SDS011;2557;51.390;7.494;2023-08-06T11:03:36;3.00;;;2.80;;
5077;SDS011;2557;51.390;7.494;2023-08-06T11:06:03;5.57;;;3.40;;
5077;SDS011;2557;51.390;7.494;2023-08-06T11:08:33;3.67;;;3.37;;
5077;SDS011;2557;51.390;7.494;2023-08-06T11:11:09;4.23;;;3.53;;
5077;SDS011;2557;51.390;7.494;2023-08-06T11:13:42;7.00;;;4.17;;
5077;SDS011;2557;51.390;7.494;2023-08-06T11:16:08;4.70;;;3.60;;
5077;SDS011;2557;51.390;7.494;2023-08-06T11:18:35;8.13;;;3.60;;
5077;SDS011;2557;51.390;7.494;2023-08-06T11:21:01;5.83;;;4.60;;
5077;SDS011;2557;51.390;7.494;2023-08-06T11:23:28;7.60;;;4.90;;
5077;SDS011;2557;51.390;7.494;2023-08-06T11:25:58;3.90;;;3.47;;
5077;SDS011;2557;51.390;7.494;2023-08-06T11:28:24;3.30;;;3.10;;
5077;SDS011;2557;51.390;7.494;2023-08-06T11:30:50;4.27;;;3.97;;
5077;SDS011;2557;51.390;7.494;2023-08-06T11:33:22;4.43;;;3.63;;
5077;SDS011;2557;51.390;7.494;2023-08-06T11:35:52;7.67;;;3.20;;
5077;SDS011;2557;51.390;7.494;2023-08-06T11:38:19;5.10;;;3.93;;
5077;SDS011;2557;51.390;7.494;2023-08-06T11:40:45;4.10;;;3.80;;
5077;SDS011;2557;51.390;7.494;2023-08-06T11:43:12;6.43;;;3.77;;
5077;SDS011;2557;51.390;7.494;2023-08-06T11:45:39;3.57;;;3.30;;
5077;SDS011;2557;51.390;7.494;2023-08-06T11:48:05;4.83;;;4.53;;
5077;SDS011;2557;51.390;7.494;2023-08-06T11:50:31;8.03;;;3.70;;
5077;SDS011;2557;51.390;7.494;2023-08-06T11:52:59;4.07;;;3.70;;
5077;SDS011;2557;51.390;7.494;2023-08-06T11:55:26;7.57;;;3.50;;
5077;SDS011;2557;51.390;7.494;2023-08-06T11:57:53;4.07;;;3.33;;
5077;SDS011;2557;51.390;7.494;2023-08-06T12:00:19;3.60;;;3.30;;
5077;SDS011;2557;51.390;7.494;2023-08-06T12:02:47;3.70;;;3.40;;
5077;SDS011;2557;51.390;7.494;2023-08-06T12:05:15;3.73;;;2.90;;
5077;SDS011;2557;51.390;7.494;2023-08-06T12:07:42;5.50;;;3.43;;
5077;SDS011;2557;51.390;7.494;2023-08-06T12:10:08;3.50;;;3.30;;
5077;SDS011;2557;51.390;7.494;2023-08-06T12:12:34;4.63;;;3.63;;
5077;SDS011;2557;51.390;7.494;2023-08-06T12:15:01;4.90;;;4.00;;
5077;SDS011;2557;51.390;7.494;2023-08-06T12:17:27;4.23;;;3.93;;
5077;SDS011;2557;51.390;7.494;2023-08-06T12:19:53;6.10;;;4.90;;
5077;SDS011;2557;51.390;7.494;2023-08-06T12:22:19;7.23;;;4.10;;
5077;SDS011;2557;51.390;7.494;2023-08-06T12:24:46;5.70;;;4.40;;
5077;SDS011;2557;51.390;7.494;2023-08-06T12:27:12;3.80;;;3.60;;
5077;SDS011;2557;51.390;7.494;2023-08-06T12:29:42;3.80;;;3.60;;
5077;SDS011;2557;51.390;7.494;2023-08-06T12:32:09;5.83;;;2.53;;
5077;SDS011;2557;51.390;7.494;2023-08-06T12:34:35;2.93;;;2.30;;
5077;SDS011;2557;51.390;7.494;2023-08-06T12:37:01;4.20;;;2.00;;
5077;SDS011;2557;51.390;7.494;2023-08-06T12:39:28;2.20;;;2.07;;
5077;SDS011;2557;51.390;7.494;2023-08-06T12:41:54;2.00;;;1.90;;
5077;SDS011;2557;51.390;7.494;2023-08-06T12:44:22;1.93;;;1.83;;
5077;SDS011;2557;51.390;7.494;2023-08-06T12:46:48;1.93;;;1.83;;
5077;SDS011;2557;51.390;7.494;2023-08-06T12:49:14;2.03;;;1.93;;
5077;SDS011;2557;51.390;7.494;2023-08-06T12:51:40;2.20;;;2.00;;
5077;SDS011;2557;51.390;7.494;2023-08-06T12:54:06;2.00;;;1.80;;
5077;SDS011;2557;51.390;7.494;2023-08-06T12:56:32;1.97;;;1.77;;
5077;SDS011;2557;51.390;7.494;2023-08-06T12:58:58;2.47;;;2.27;;
5077;SDS011;2557;51.390;7.494;2023-08-06T13:01:24;2.33;;;2.23;;
5077;SDS011;2557;51.390;7.494;2023-08-06T13:03:50;2.47;;;2.37;;
5077;SDS011;2557;51.390;7.494;2023-08-06T13:06:16;2.17;;;2.07;;
5077;SDS011;2557;51.390;7.494;2023-08-06T13:08:42;2.67;;;2.50;;
5077;SDS011;2557;51.390;7.494;2023-08-06T13:11:08;2.70;;;2.50;;
5077;SDS011;2557;51.390;7.494;2023-08-06T13:13:34;2.93;;;2.73;;
5077;SDS011;2557;51.390;7.494;2023-08-06T13:16:00;2.77;;;2.40;;
5077;SDS011;2557;51.390;7.494;2023-08-06T13:18:26;2.30;;;2.10;;
5077;SDS011;2557;51.390;7.494;2023-08-06T13:20:53;4.20;;;2.10;;
5077;SDS011;2557;51.390;7.494;2023-08-06T13:23:19;1.70;;;1.60;;
5077;SDS011;2557;51.390;7.494;2023-08-06T13:25:45;2.90;;;1.63;;
5077;SDS011;2557;51.390;7.494;2023-08-06T13:28:11;5.00;;;1.60;;
5077;SDS011;2557;51.390;7.494;2023-08-06T13:30:38;1.67;;;1.57;;
5077;SDS011;2557;51.390;7.494;2023-08-06T13:33:07;1.60;;;1.50;;
5077;SDS011;2557;51.390;7.494;2023-08-06T13:35:33;1.60;;;1.50;;
5077;SDS011;2557;51.390;7.494;2023-08-06T13:37:59;1.67;;;1.57;;
5077;SDS011;2557;51.390;7.494;2023-08-06T13:40:27;1.40;;;1.30;;
5077;SDS011;2557;51.390;7.494;2023-08-06T13:42:53;2.60;;;1.30;;
5077;SDS011;2557;51.390;7.494;2023-08-06T13:45:19;3.27;;;1.50;;
5077;SDS011;2557;51.390;7.494;2023-08-06T13:47:46;1.97;;;1.77;;
5077;SDS011;2557;51.390;7.494;2023-08-06T13:50:12;3.17;;;1.40;;
5077;SDS011;2557;51.390;7.494;2023-08-06T13:52:38;2.30;;;1.40;;
5077;SDS011;2557;51.390;7.494;2023-08-06T13:55:05;1.87;;;1.30;;
5077;SDS011;2557;51.390;7.494;2023-08-06T13:57:31;2.77;;;1.20;;
5077;SDS011;2557;51.390;7.494;2023-08-06T13:59:57;1.50;;;1.40;;
5077;SDS011;2557;51.390;7.494;2023-08-06T14:02:23;1.87;;;1.50;;
5077;SDS011;2557;51.390;7.494;2023-08-06T14:04:50;3.20;;;1.70;;
5077;SDS011;2557;51.390;7.494;2023-08-06T14:07:16;1.60;;;1.50;;
5077;SDS011;2557;51.390;7.494;2023-08-06T14:09:42;1.63;;;1.53;;
5077;SDS011;2557;51.390;7.494;2023-08-06T14:12:09;1.70;;;1.60;;
5077;SDS011;2557;51.390;7.494;2023-08-06T14:14:35;1.80;;;1.40;;
5077;SDS011;2557;51.390;7.494;2023-08-06T14:17:01;1.70;;;1.60;;
5077;SDS011;2557;51.390;7.494;2023-08-06T14:19:27;1.73;;;1.63;;
5077;SDS011;2557;51.390;7.494;2023-08-06T14:21:54;2.40;;;1.50;;
5077;SDS011;2557;51.390;7.494;2023-08-06T14:24:20;2.63;;;1.70;;
5077;SDS011;2557;51.390;7.494;2023-08-06T14:26:46;1.70;;;1.60;;
5077;SDS011;2557;51.390;7.494;2023-08-06T14:29:12;2.40;;;1.60;;
5077;SDS011;2557;51.390;7.494;2023-08-06T14:31:39;1.80;;;1.70;;
5077;SDS011;2557;51.390;7.494;2023-08-06T14:34:05;2.20;;;1.80;;
5077;SDS011;2557;51.390;7.494;2023-08-06T14:36:31;2.03;;;1.63;;
5077;SDS011;2557;51.390;7.494;2023-08-06T14:38:57;1.93;;;1.83;;
5077;SDS011;2557;51.390;7.494;2023-08-06T14:41:23;2.10;;;2.00;;
5077;SDS011;2557;51.390;7.494;2023-08-06T14:43:50;2.20;;;2.10;;
5077;SDS011;2557;51.390;7.494;2023-08-06T14:46:16;2.70;;;2.57;;
5077;SDS011;2557;51.390;7.494;2023-08-06T14:48:42;2.97;;;2.77;;
5077;SDS011;2557;51.390;7.494;2023-08-06T14:51:08;3.27;;;3.03;;
5077;SDS011;2557;51.390;7.494;2023-08-06T14:53:34;2.97;;;2.77;;
5077;SDS011;2557;51.390;7.494;2023-08-06T14:56:00;2.53;;;2.30;;
5077;SDS011;2557;51.390;7.494;2023-08-06T14:58:27;4.07;;;2.90;;
5077;SDS011;2557;51.390;7.494;2023-08-06T15:00:53;4.10;;;3.50;;
5077;SDS011;2557;51.390;7.494;2023-08-06T15:03:19;3.67;;;3.37;;
5077;SDS011;2557;51.390;7.494;2023-08-06T15:05:48;6.83;;;3.00;;
5077;SDS011;2557;51.390;7.494;2023-08-06T15:08:14;3.47;;;3.17;;
5077;SDS011;2557;51.390;7.494;2023-08-06T15:10:40;3.00;;;2.80;;
5077;SDS011;2557;51.390;7.494;2023-08-06T15:13:06;5.93;;;2.90;;
5077;SDS011;2557;51.390;7.494;2023-08-06T15:15:32;3.40;;;2.83;;
5077;SDS011;2557;51.390;7.494;2023-08-06T15:17:58;3.40;;;3.20;;
5077;SDS011;2557;51.390;7.494;2023-08-06T15:20:24;4.03;;;3.60;;
5077;SDS011;2557;51.390;7.494;2023-08-06T15:22:51;3.53;;;3.20;;